Time;durP1;ratioP1;P1;durP2;ratioP2;P2;SDS_P1;SDS_P2;PMS_P1;PMS_P2;Temp;Humidity;BMP_temperature;BMP_pressure;BME280_temperature;BME280_humidity;BME280_pressure;Samples;Min_cycle;Max_cycle;Signal;HPM_P1;HPM_P2
2022/05/27 00:01:14;;;;;;;12.00;3.50;;;9.90;99.90;;;;;;4967380;28;20046;-68
2022/05/27 00:03:41;;;;;;;15.70;4.60;;;9.90;99.90;;;;;;4967232;28;20058;-63
2022/05/27 00:06:08;;;;;;;9.07;2.58;;;9.80;99.90;;;;;;4969823;28;20060;-64
2022/05/27 00:08:36;;;;;;;9.27;3.70;;;9.80;99.90;;;;;;4969528;28;20137;-69
2022/05/27 00:11:03;;;;;;;24.58;4.35;;;9.80;99.90;;;;;;4984164;28;20773;-69
2022/05/27 00:13:30;;;;;;;10.52;1.92;;;9.80;99.90;;;;;;4988504;28;20110;-65
2022/05/27 00:15:58;;;;;;;26.42;3.35;;;9.80;99.90;;;;;;4970633;28;20535;-74
2022/05/27 00:18:25;;;;;;;14.13;3.45;;;9.80;99.90;;;;;;4982088;28;20053;-69
2022/05/27 00:20:52;;;;;;;12.25;2.17;;;9.70;99.90;;;;;;4969040;28;21257;-70
2022/05/27 00:23:20;;;;;;;10.35;2.67;;;9.70;99.90;;;;;;4985515;28;20077;-72
2022/05/27 00:25:47;;;;;;;15.30;3.13;;;9.70;99.90;;;;;;4976058;28;20081;-70
2022/05/27 00:28:14;;;;;;;9.35;3.72;;;9.60;99.90;;;;;;4968926;28;20193;-70
2022/05/27 00:30:42;;;;;;;7.60;3.20;;;9.60;99.90;;;;;;4983527;28;20240;-69
2022/05/27 00:33:09;;;;;;;6.05;2.15;;;9.60;99.90;;;;;;5001012;28;20050;-69
2022/05/27 00:35:38;;;;;;;11.48;2.83;;;9.60;99.90;;;;;;4985638;28;20060;-67
2022/05/27 00:38:05;;;;;;;9.85;3.47;;;9.60;99.90;;;;;;4986449;28;20137;-68
2022/05/27 00:40:42;;;;;;;13.18;2.70;;;9.60;99.90;;;;;;4967121;28;20140;-65
2022/05/27 00:43:09;;;;;;;9.10;3.13;;;9.60;99.90;;;;;;4971275;28;20060;-68
2022/05/27 00:45:40;;;;;;;17.42;3.40;;;9.60;99.90;;;;;;4986630;28;20107;-67
2022/05/27 00:48:14;;;;;;;7.43;2.00;;;9.60;99.90;;;;;;4986305;28;20069;-71
2022/05/27 00:50:45;;;;;;;10.85;4.05;;;9.60;99.90;;;;;;4971822;28;21437;-66
2022/05/27 00:53:23;;;;;;;8.52;2.60;;;9.60;99.90;;;;;;4970027;28;20058;-69
2022/05/27 00:55:54;;;;;;;10.13;2.85;;;9.50;99.90;;;;;;4981949;28;20068;-66
2022/05/27 00:58:32;;;;;;;11.93;3.88;;;9.50;99.90;;;;;;4974105;28;20046;-71
2022/05/27 01:01:00;;;;;;;8.45;2.53;;;9.60;99.90;;;;;;4985058;28;20141;-68
2022/05/27 01:03:29;;;;;;;7.90;2.83;;;9.50;99.90;;;;;;4984864;28;20049;-69
2022/05/27 01:05:56;;;;;;;6.55;2.72;;;9.50;99.90;;;;;;4986361;28;20144;-67
2022/05/27 01:08:26;;;;;;;13.60;2.67;;;9.50;99.90;;;;;;4975158;28;20124;-72
2022/05/27 01:11:06;;;;;;;;;;;9.50;99.90;;;;;;4964906;28;20054;-69
2022/05/27 01:14:08;;;;;;;16.80;6.03;;;9.50;99.90;;;;;;4964247;28;20335;-70
2022/05/27 01:16:57;;;;;;;7.15;2.55;;;9.50;99.90;;;;;;4959814;28;20496;-69
2022/05/27 01:22:56;;;;;;;7.97;2.65;;;9.40;99.90;;;;;;4969847;28;20061;-66
2022/05/27 01:25:46;;;;;;;13.25;3.90;;;9.50;99.90;;;;;;4986039;28;20103;-72
2022/05/27 01:28:33;;;;;;;14.95;4.20;;;9.50;99.90;;;;;;4982709;28;20053;-70
2022/05/27 01:31:06;;;;;;;8.93;2.70;;;9.40;99.90;;;;;;4983284;28;20562;-68
2022/05/27 01:34:00;;;;;;;10.63;2.40;;;9.40;99.90;;;;;;4990526;28;20057;-67
2022/05/27 01:36:49;;;;;;;8.15;3.67;;;9.40;99.90;;;;;;4987652;28;20068;-71
2022/05/27 01:39:40;;;;;;;10.20;2.72;;;9.40;99.90;;;;;;4981965;28;20229;-67
2022/05/27 01:42:35;;;;;;;8.80;2.88;;;9.40;99.90;;;;;;4971951;28;21480;-64
2022/05/27 01:45:14;;;;;;;14.88;4.05;;;9.30;99.90;;;;;;4986607;28;20133;-69
2022/05/27 01:47:52;;;;;;;10.85;3.00;;;9.30;99.90;;;;;;4985656;28;20054;-65
2022/05/27 01:50:31;;;;;;;11.95;2.10;;;9.30;99.90;;;;;;4987828;28;20056;-67
2022/05/27 01:53:11;;;;;;;18.55;4.90;;;9.30;99.90;;;;;;4969022;28;20688;-65
2022/05/27 01:55:45;;;;;;;8.43;2.97;;;9.30;99.90;;;;;;4978244;28;22337;-72
2022/05/27 01:58:22;;;;;;;7.90;3.80;;;9.30;99.90;;;;;;4987419;28;20054;-65
2022/05/27 02:00:49;;;;;;;12.68;2.70;;;9.30;99.90;;;;;;4969346;28;20062;-66
2022/05/27 02:03:44;;;;;;;9.43;2.50;;;9.30;99.90;;;;;;4974421;28;20471;-69
2022/05/27 02:06:30;;;;;;;10.68;3.05;;;9.20;99.90;;;;;;4990481;28;20943;-65
2022/05/27 02:09:00;;;;;;;16.73;4.15;;;9.20;99.90;;;;;;4968750;28;20116;-67
2022/05/27 02:11:28;;;;;;;12.63;3.10;;;9.20;99.90;;;;;;4970617;28;20054;-69
2022/05/27 02:14:00;;;;;;;5.80;2.67;;;9.20;99.90;;;;;;4981275;28;20156;-70
2022/05/27 02:16:39;;;;;;;10.50;2.47;;;9.20;99.90;;;;;;4987851;28;20104;-69
2022/05/27 02:19:14;;;;;;;9.57;2.80;;;9.20;99.90;;;;;;4982822;28;21085;-69
2022/05/27 02:21:49;;;;;;;15.50;3.53;;;9.20;99.90;;;;;;4979370;28;20306;-66
2022/05/27 02:24:39;;;;;;;11.85;3.40;;;9.20;99.90;;;;;;4983262;28;20064;-65
2022/05/27 02:27:14;;;;;;;7.78;3.05;;;9.20;99.90;;;;;;4978167;28;20062;-64
2022/05/27 02:29:45;;;;;;;15.02;4.35;;;9.20;99.90;;;;;;4966611;28;20046;-67
2022/05/27 02:32:28;;;;;;;8.65;2.75;;;9.20;99.90;;;;;;4969516;28;20054;-67
2022/05/27 02:35:08;;;;;;;6.50;2.35;;;9.20;99.90;;;;;;4982356;28;20167;-66
2022/05/27 02:37:42;;;;;;;11.35;2.50;;;9.20;99.90;;;;;;4988135;28;20449;-69
2022/05/27 02:40:13;;;;;;;9.77;2.60;;;9.20;99.90;;;;;;4987223;28;20056;-66
2022/05/27 02:42:49;;;;;;;4.60;2.95;;;9.10;99.90;;;;;;4982469;28;20062;-68
2022/05/27 02:45:33;;;;;;;7.13;4.78;;;9.10;99.90;;;;;;4980499;28;20058;-68
2022/05/27 02:48:33;;;;;;;9.25;2.30;;;9.20;99.90;;;;;;4968382;28;20050;-66
2022/05/27 02:51:36;;;;;;;4.43;2.58;;;9.20;99.90;;;;;;4983773;28;20056;-68
2022/05/27 02:54:03;;;;;;;7.68;2.65;;;9.10;99.90;;;;;;4988848;28;20061;-67
2022/05/27 02:56:45;;;;;;;8.90;2.25;;;9.10;99.90;;;;;;4986424;28;20068;-65
2022/05/27 02:59:14;;;;;;;18.23;3.03;;;9.10;99.90;;;;;;4979542;28;20133;-68
2022/05/27 03:01:41;;;;;;;7.05;2.08;;;9.10;99.90;;;;;;4968524;28;20056;-68
2022/05/27 03:04:08;;;;;;;8.02;2.53;;;9.10;99.90;;;;;;4968762;28;20082;-70
2022/05/27 03:07:16;;;;;;;6.97;2.10;;;9.10;99.90;;;;;;4982885;28;20057;-70
2022/05/27 03:09:52;;;;;;;9.35;2.50;;;9.10;99.90;;;;;;4974013;28;20074;-69
2022/05/27 03:12:46;;;;;;;8.57;3.17;;;9.10;99.90;;;;;;4985070;28;21668;-70
2022/05/27 03:15:50;;;;;;;8.45;2.17;;;9.10;99.90;;;;;;4987149;28;20114;-69
2022/05/27 03:18:55;;;;;;;10.52;2.28;;;9.10;99.90;;;;;;4972569;28;20086;-68
2022/05/27 03:21:35;;;;;;;8.38;2.63;;;9.10;99.90;;;;;;4984473;28;20046;-66
2022/05/27 03:24:08;;;;;;;;;;;9.10;99.90;;;;;;4974468;28;20125;-70
2022/05/27 03:27:03;;;;;;;16.58;2.65;;;9.10;99.90;;;;;;4981221;28;20366;-69
2022/05/27 03:30:00;;;;;;;8.52;2.42;;;9.10;99.90;;;;;;4977848;28;20050;-66
2022/05/27 03:32:57;;;;;;;11.18;2.28;;;9.10;99.90;;;;;;4972918;28;20070;-68
2022/05/27 03:35:41;;;;;;;8.52;2.58;;;9.00;99.90;;;;;;4971946;28;20137;-64
2022/05/27 03:38:14;;;;;;;5.53;2.63;;;9.00;99.90;;;;;;4978497;28;20109;-68
2022/05/27 03:40:59;;;;;;;12.45;2.42;;;9.00;99.90;;;;;;4983280;28;20054;-63
2022/05/27 03:43:27;;;;;;;6.57;2.60;;;9.00;99.90;;;;;;4988632;28;20200;-70
2022/05/27 03:45:58;;;;;;;10.88;2.38;;;9.10;99.90;;;;;;4986583;28;20046;-69
2022/05/27 03:48:29;;;;;;;9.27;3.15;;;9.10;99.90;;;;;;4986614;28;20054;-69
2022/05/27 03:51:15;;;;;;;9.57;2.80;;;9.10;99.90;;;;;;4983624;28;20045;-68
2022/05/27 03:56:43;;;;;;;5.57;2.22;;;9.10;99.90;;;;;;4984123;28;20046;-68
2022/05/27 03:59:12;;;;;;;12.50;2.42;;;9.10;99.90;;;;;;4987593;28;20053;-64
2022/05/27 04:01:42;;;;;;;12.90;3.17;;;9.10;99.90;;;;;;4987145;28;20060;-67
2022/05/27 04:04:14;;;;;;;10.00;2.92;;;9.10;99.90;;;;;;4987163;28;20149;-72
2022/05/27 04:06:41;;;;;;;10.15;3.15;;;9.20;99.90;;;;;;4982852;28;20054;-68
2022/05/27 04:09:08;;;;;;;10.40;3.78;;;9.20;99.90;;;;;;4966143;28;20081;-66
2022/05/27 04:11:36;;;;;;;6.10;4.22;;;9.20;99.90;;;;;;4966654;28;20524;-69
2022/05/27 04:14:03;;;;;;;10.18;2.95;;;9.20;99.90;;;;;;4968040;28;20061;-64
2022/05/27 04:16:30;;;;;;;10.32;2.63;;;9.20;99.90;;;;;;4966567;28;20187;-67
2022/05/27 04:18:57;;;;;;;11.10;3.45;;;9.20;99.90;;;;;;4985037;28;20203;-66
2022/05/27 04:21:24;;;;;;;5.45;2.10;;;9.20;99.90;;;;;;4977718;28;20137;-66
2022/05/27 04:23:52;;;;;;;8.10;2.45;;;9.20;99.90;;;;;;4969241;28;21446;-64
2022/05/27 04:26:19;;;;;;;10.02;2.38;;;9.30;99.90;;;;;;4981449;28;20055;-66
2022/05/27 04:28:46;;;;;;;14.50;3.92;;;9.30;99.90;;;;;;4980189;28;20557;-66
2022/05/27 04:31:13;;;;;;;12.32;2.85;;;9.30;99.90;;;;;;4969020;28;21768;-65
2022/05/27 04:33:40;;;;;;;9.25;2.83;;;9.30;99.90;;;;;;4971053;28;20742;-66
2022/05/27 04:36:07;;;;;;;18.55;3.47;;;9.20;99.90;;;;;;4968271;28;20495;-65
2022/05/27 04:38:36;;;;;;;13.05;2.60;;;9.30;99.90;;;;;;4977096;28;20050;-67
2022/05/27 04:41:04;;;;;;;5.95;2.38;;;9.30;99.90;;;;;;4961763;28;20112;-67
2022/05/27 04:43:32;;;;;;;17.50;3.58;;;9.30;99.90;;;;;;4963633;28;20464;-66
2022/05/27 04:45:59;;;;;;;9.15;3.70;;;9.30;99.90;;;;;;4963743;28;20947;-64
2022/05/27 04:48:26;;;;;;;13.10;4.13;;;9.30;99.90;;;;;;4976869;28;20149;-64
2022/05/27 04:50:53;;;;;;;9.60;2.10;;;9.30;99.90;;;;;;4971598;28;20136;-66
2022/05/27 04:53:20;;;;;;;9.50;2.28;;;9.30;99.90;;;;;;4975147;28;20069;-68
2022/05/27 04:55:47;;;;;;;9.13;2.13;;;9.40;99.90;;;;;;4967816;28;20058;-67
2022/05/27 04:58:14;;;;;;;4.95;1.88;;;9.40;99.90;;;;;;4962640;28;20299;-67
2022/05/27 05:00:45;;;;;;;12.48;3.33;;;9.40;99.90;;;;;;4965299;28;20046;-68
2022/05/27 05:03:13;;;;;;;20.13;4.25;;;9.40;99.90;;;;;;4984475;28;20058;-68
2022/05/27 05:05:40;;;;;;;13.35;2.63;;;9.50;99.90;;;;;;4982395;28;20180;-69
2022/05/27 05:08:22;;;;;;;9.93;2.47;;;9.50;99.90;;;;;;4984292;28;20145;-70
2022/05/27 05:10:49;;;;;;;14.77;4.20;;;9.60;99.90;;;;;;4963724;28;20057;-68
2022/05/27 05:13:15;;;;;;;5.00;2.45;;;9.60;99.90;;;;;;4965551;28;20050;-67
2022/05/27 05:15:42;;;;;;;14.38;2.33;;;9.60;99.90;;;;;;4972494;28;20058;-68
2022/05/27 05:18:09;;;;;;;3.88;1.42;;;9.60;99.90;;;;;;4984189;28;20046;-63
2022/05/27 05:20:36;;;;;;;15.55;4.72;;;9.70;99.90;;;;;;4966898;28;20105;-67
2022/05/27 05:23:03;;;;;;;10.82;2.40;;;9.70;99.90;;;;;;4977438;28;20050;-67
2022/05/27 05:25:30;;;;;;;15.48;2.33;;;9.70;99.90;;;;;;4958493;28;20258;-69
2022/05/27 05:27:57;;;;;;;8.38;2.50;;;9.70;99.90;;;;;;4965491;28;20050;-68
2022/05/27 05:30:25;;;;;;;5.22;2.20;;;9.80;99.90;;;;;;4979315;28;20056;-69
2022/05/27 05:32:52;;;;;;;10.57;2.30;;;9.80;99.90;;;;;;4960623;28;20080;-66
2022/05/27 05:35:20;;;;;;;9.45;2.75;;;9.70;99.90;;;;;;4969323;28;21334;-69
2022/05/27 05:37:48;;;;;;;12.57;2.83;;;9.70;99.90;;;;;;4970869;28;20053;-65
2022/05/27 05:40:15;;;;;;;14.10;5.28;;;9.80;99.90;;;;;;4967134;28;20050;-67
2022/05/27 05:42:46;;;;;;;12.95;1.80;;;9.80;99.90;;;;;;4965314;28;20157;-70
2022/05/27 05:45:14;;;;;;;;;;;9.80;99.90;;;;;;4984374;28;20858;-69
2022/05/27 05:47:41;;;;;;;5.30;1.85;;;9.90;99.90;;;;;;4985689;28;20393;-69
2022/05/27 05:50:09;;;;;;;9.23;2.17;;;9.90;99.90;;;;;;4970545;28;20160;-75
2022/05/27 05:52:36;;;;;;;16.42;2.53;;;9.90;99.90;;;;;;4966685;28;20054;-73
2022/05/27 05:55:04;;;;;;;11.57;2.88;;;9.90;99.90;;;;;;4979698;28;20051;-72
2022/05/27 05:57:31;;;;;;;8.18;3.15;;;9.90;99.90;;;;;;4971855;28;20054;-70
2022/05/27 05:59:59;;;;;;;12.23;2.42;;;9.90;99.90;;;;;;4986186;28;20990;-69
2022/05/27 06:02:26;;;;;;;7.78;3.33;;;9.90;99.90;;;;;;4971535;28;20082;-70
2022/05/27 06:04:53;;;;;;;11.38;3.25;;;10.00;99.90;;;;;;4963483;28;20050;-64
2022/05/27 06:07:20;;;;;;;7.15;1.85;;;10.00;99.90;;;;;;4970543;28;20054;-68
2022/05/27 06:09:47;;;;;;;14.13;2.92;;;10.10;99.90;;;;;;4983129;28;20050;-68
2022/05/27 06:12:15;;;;;;;5.35;1.90;;;10.10;99.90;;;;;;4990358;28;20276;-65
2022/05/27 06:14:42;;;;;;;5.45;2.75;;;10.10;99.90;;;;;;4970806;28;20457;-67
2022/05/27 06:17:09;;;;;;;11.90;2.50;;;10.20;99.90;;;;;;4990620;28;20166;-70
2022/05/27 06:19:36;;;;;;;16.75;3.35;;;10.20;99.90;;;;;;4990776;28;20295;-71
2022/05/27 06:22:03;;;;;;;7.18;3.45;;;10.20;99.90;;;;;;4986034;28;20169;-74
2022/05/27 06:24:30;;;;;;;12.60;3.17;;;10.20;99.90;;;;;;4985168;28;20068;-71
2022/05/27 06:26:57;;;;;;;10.38;3.28;;;10.20;99.90;;;;;;4989743;28;20175;-70
2022/05/27 06:34:55;;;;;;;9.57;3.05;;;10.30;99.90;;;;;;4980247;28;20081;-69
2022/05/27 06:37:22;;;;;;;10.95;2.28;;;10.40;99.90;;;;;;4966232;28;20080;-69
2022/05/27 06:39:50;;;;;;;7.07;2.38;;;10.40;99.90;;;;;;4971549;28;20050;-65
2022/05/27 06:42:17;;;;;;;11.93;2.38;;;10.40;99.90;;;;;;4965979;28;20569;-68
2022/05/27 06:45:08;;;;;;;6.03;2.35;;;10.40;99.90;;;;;;4964491;28;20053;-68
2022/05/27 06:47:35;;;;;;;10.57;2.13;;;10.40;99.90;;;;;;4969293;28;20058;-64
2022/05/27 06:50:03;;;;;;;4.68;1.90;;;10.50;99.90;;;;;;4967353;28;20145;-66
2022/05/27 06:52:31;;;;;;;8.18;2.10;;;10.50;99.90;;;;;;4964958;28;20069;-66
2022/05/27 06:54:58;;;;;;;10.75;3.63;;;10.50;99.90;;;;;;4981869;28;20064;-65
2022/05/27 06:57:26;;;;;;;5.47;3.15;;;10.60;99.90;;;;;;4968458;28;20165;-69
2022/05/27 06:59:53;;;;;;;6.00;2.70;;;10.60;99.90;;;;;;4982710;28;20870;-69
2022/05/27 07:02:22;;;;;;;8.38;2.30;;;10.70;99.90;;;;;;4990236;28;20053;-65
2022/05/27 07:04:50;;;;;;;7.07;2.35;;;10.70;99.90;;;;;;4988550;28;20046;-66
2022/05/27 07:07:17;;;;;;;6.10;2.00;;;10.60;99.90;;;;;;4983278;28;20127;-66
2022/05/27 07:09:44;;;;;;;9.20;2.80;;;10.60;99.90;;;;;;4989509;28;20535;-66
2022/05/27 07:12:12;;;;;;;13.65;2.85;;;10.70;99.90;;;;;;4988012;28;20859;-64
2022/05/27 07:14:39;;;;;;;11.38;2.08;;;10.80;99.90;;;;;;4986355;28;20054;-65
2022/05/27 07:17:07;;;;;;;14.13;3.35;;;10.80;99.90;;;;;;4979088;28;20055;-67
2022/05/27 07:19:40;;;;;;;5.45;1.80;;;10.90;99.90;;;;;;4962018;28;20058;-71
2022/05/27 07:22:09;;;;;;;5.35;1.98;;;10.90;99.90;;;;;;4978794;28;20547;-70
2022/05/27 07:24:37;;;;;;;6.30;2.40;;;10.90;99.90;;;;;;4981024;28;20176;-68
2022/05/27 07:27:05;;;;;;;9.68;2.90;;;11.10;99.90;;;;;;4974045;28;20109;-65
2022/05/27 07:29:32;;;;;;;15.75;2.50;;;11.10;99.90;;;;;;4987896;28;20461;-68
2022/05/27 07:31:59;;;;;;;12.00;3.75;;;11.20;99.90;;;;;;4986301;28;21335;-69
2022/05/27 07:34:26;;;;;;;9.35;3.03;;;11.10;99.90;;;;;;4985678;28;20465;-70
2022/05/27 07:36:53;;;;;;;8.02;2.90;;;11.20;99.90;;;;;;4988458;28;20050;-68
2022/05/27 07:39:20;;;;;;;6.05;1.75;;;11.30;99.90;;;;;;4976607;28;20185;-67
2022/05/27 07:41:47;;;;;;;12.63;3.00;;;11.40;99.90;;;;;;4965316;28;20077;-68
2022/05/27 07:44:15;;;;;;;10.90;3.53;;;11.40;99.90;;;;;;4995022;28;21769;-66
2022/05/27 07:46:43;;;;;;;8.25;1.77;;;11.40;99.90;;;;;;4965748;28;20046;-68
2022/05/27 07:49:10;;;;;;;7.13;2.53;;;11.40;99.90;;;;;;4968237;28;20066;-70
2022/05/27 07:51:57;;;;;;;10.90;2.63;;;11.50;99.90;;;;;;4987443;28;20046;-68
2022/05/27 07:54:24;;;;;;;7.13;2.28;;;11.60;99.90;;;;;;4982716;28;20806;-73
2022/05/27 07:56:51;;;;;;;9.75;3.53;;;11.60;99.90;;;;;;4976537;28;20050;-71
2022/05/27 07:59:18;;;;;;;9.75;2.72;;;11.60;99.90;;;;;;4997943;28;20105;-65
2022/05/27 08:01:46;;;;;;;4.75;2.25;;;11.70;99.90;;;;;;4967457;28;20492;-69
2022/05/27 08:04:13;;;;;;;7.10;2.38;;;11.70;99.90;;;;;;4982187;28;20042;-68
2022/05/27 08:06:41;;;;;;;6.70;1.65;;;11.80;99.90;;;;;;4984924;28;20046;-67
2022/05/27 08:09:13;;;;;;;8.48;3.05;;;11.80;99.90;;;;;;4983500;28;20061;-67
2022/05/27 08:11:40;;;;;;;14.73;2.65;;;11.70;99.90;;;;;;4985274;28;20105;-68
2022/05/27 08:14:09;;;;;;;8.75;2.17;;;11.70;99.90;;;;;;4972110;28;20046;-67
2022/05/27 08:16:37;;;;;;;8.18;2.05;;;11.60;99.90;;;;;;4967921;28;20086;-71
2022/05/27 08:19:04;;;;;;;9.40;3.08;;;11.70;99.90;;;;;;4965302;28;20173;-67
2022/05/27 08:21:36;;;;;;;3.80;1.77;;;11.80;99.90;;;;;;4963511;28;20054;-68
2022/05/27 08:24:03;;;;;;;6.78;2.28;;;11.90;99.90;;;;;;4977068;28;20049;-67
2022/05/27 08:26:30;;;;;;;6.85;2.40;;;12.00;99.90;;;;;;4965389;28;20136;-70
2022/05/27 08:28:57;;;;;;;7.72;2.20;;;12.00;99.90;;;;;;4965433;28;20107;-66
2022/05/27 08:31:24;;;;;;;11.65;2.33;;;12.10;99.90;;;;;;4973704;28;20110;-66
2022/05/27 08:39:22;;;;;;;2.47;1.40;;;12.30;99.90;;;;;;4982887;28;20058;-67
2022/05/27 08:42:08;;;;;;;9.63;1.70;;;12.20;99.90;;;;;;4975579;28;20164;-69
2022/05/27 08:44:46;;;;;;;9.68;3.00;;;12.30;99.90;;;;;;4982489;28;20049;-70
2022/05/27 08:47:24;;;;;;;9.55;3.47;;;12.50;99.90;;;;;;4971952;28;20755;-66
2022/05/27 08:50:18;;;;;;;7.63;2.42;;;12.60;99.90;;;;;;4979309;28;20145;-66
2022/05/27 08:53:06;;;;;;;4.78;2.15;;;12.70;99.90;;;;;;4968873;28;20054;-67
2022/05/27 09:01:21;;;;;;;8.77;2.40;;;12.80;99.90;;;;;;4985259;28;20061;-67
2022/05/27 09:04:15;;;;;;;7.65;1.95;;;12.90;99.90;;;;;;4976990;28;20748;-66
2022/05/27 09:06:48;;;;;;;4.00;2.00;;;12.80;99.90;;;;;;4981490;28;20677;-66
2022/05/27 09:09:24;;;;;;;7.20;1.73;;;13.00;99.90;;;;;;4978554;28;20121;-64
2022/05/27 09:12:18;;;;;;;5.35;1.70;;;12.90;99.90;;;;;;4980212;28;20867;-66
2022/05/27 09:15:14;;;;;;;7.28;2.05;;;12.90;99.90;;;;;;4983493;28;20077;-65
2022/05/27 09:17:48;;;;;;;5.00;1.33;;;13.10;99.90;;;;;;4969398;28;20056;-66
2022/05/27 09:20:40;;;;;;;6.38;1.73;;;13.20;99.90;;;;;;4970228;28;20076;-65
2022/05/27 09:23:10;;;;;;;4.70;1.27;;;13.20;99.90;;;;;;4985075;28;20129;-66
2022/05/27 09:26:20;;;;;;;5.90;1.70;;;13.30;99.90;;;;;;4977035;28;20141;-67
2022/05/27 09:29:25;;;;;;;6.37;1.73;;;13.40;99.90;;;;;;4957263;28;21536;-63
2022/05/27 09:31:58;;;;;;;3.75;2.22;;;13.70;99.90;;;;;;4965155;28;20462;-67
2022/05/27 09:34:29;;;;;;;9.18;2.50;;;13.60;99.90;;;;;;4975219;28;20054;-69
2022/05/27 09:37:00;;;;;;;5.10;1.52;;;13.60;99.90;;;;;;4976260;28;21809;-68
2022/05/27 09:39:27;;;;;;;10.57;1.65;;;13.50;99.90;;;;;;4972343;28;20262;-68
2022/05/27 09:42:14;;;;;;;5.70;2.35;;;13.50;99.90;;;;;;4975986;28;20054;-69
2022/05/27 09:44:54;;;;;;;2.70;1.20;;;13.40;99.90;;;;;;4961734;28;20050;-68
2022/05/27 09:47:23;;;;;;;1.98;1.23;;;13.30;99.90;;;;;;4987088;28;20053;-67
2022/05/27 09:49:58;;;;;;;4.68;1.83;;;13.20;99.90;;;;;;4977163;28;20132;-67
2022/05/27 09:52:35;;;;;;;5.78;2.95;;;13.30;99.90;;;;;;4966811;28;20711;-67
2022/05/27 09:55:25;;;;;;;4.40;1.95;;;13.30;99.90;;;;;;4969952;28;20054;-66
2022/05/27 09:58:00;;;;;;;6.28;1.92;;;13.30;99.90;;;;;;4967445;28;20106;-66
2022/05/27 10:00:53;;;;;;;4.85;1.70;;;13.30;99.90;;;;;;4983412;28;20046;-68
2022/05/27 10:03:22;;;;;;;6.75;2.88;;;13.50;99.90;;;;;;4974849;28;20078;-67
2022/05/27 10:05:56;;;;;;;8.57;1.33;;;13.80;99.90;;;;;;4967767;28;20208;-67
2022/05/27 10:08:34;;;;;;;5.45;1.55;;;14.10;99.90;;;;;;4982089;28;20363;-68
2022/05/27 10:11:12;;;;;;;8.07;1.60;;;14.30;99.90;;;;;;4971880;28;20054;-67
2022/05/27 10:13:41;;;;;;;3.75;1.45;;;14.40;99.90;;;;;;4979895;28;20061;-68
2022/05/27 10:16:24;;;;;;;4.47;1.10;;;14.20;99.90;;;;;;4987435;28;20046;-67
2022/05/27 10:19:10;;;;;;;4.30;1.27;;;14.10;99.90;;;;;;4983212;28;20060;-65
2022/05/27 10:21:59;;;;;;;9.35;1.70;;;14.00;99.90;;;;;;4974220;28;20057;-64
2022/05/27 10:24:30;;;;;;;3.33;1.50;;;13.90;99.90;;;;;;4967523;28;20057;-66
2022/05/27 10:27:06;;;;;;;5.15;2.20;;;13.80;99.90;;;;;;4987306;28;20125;-67
2022/05/27 10:29:46;;;;;;;4.28;2.17;;;13.90;99.90;;;;;;4988888;28;20053;-67
2022/05/27 10:32:36;;;;;;;3.45;1.45;;;14.00;99.90;;;;;;4983713;28;20057;-66
2022/05/27 10:35:29;;;;;;;5.03;1.42;;;14.20;99.90;;;;;;4968247;28;20137;-67
2022/05/27 10:38:14;;;;;;;4.72;1.38;;;14.30;99.90;;;;;;4970853;28;20054;-68
2022/05/27 10:40:56;;;;;;;3.22;1.08;;;14.60;99.90;;;;;;4980953;28;20467;-67
2022/05/27 10:43:46;;;;;;;3.97;2.33;;;14.60;99.90;;;;;;4973263;28;20613;-68
2022/05/27 10:46:18;;;;;;;4.38;1.95;;;14.60;99.90;;;;;;4985178;28;20049;-65
2022/05/27 10:49:05;;;;;;;2.30;1.17;;;14.90;99.90;;;;;;4980933;28;20137;-68
2022/05/27 10:51:35;;;;;;;5.40;1.80;;;15.00;99.90;;;;;;4985222;28;20069;-67
2022/05/27 10:54:58;;;;;;;6.90;1.13;;;14.90;99.90;;;;;;4980595;28;20481;-69
2022/05/27 11:03:43;;;;;;;5.55;2.10;;;15.30;99.90;;;;;;4971973;28;20163;-68
2022/05/27 11:06:25;;;;;;;3.25;1.10;;;15.30;99.90;;;;;;4982748;28;20068;-69
2022/05/27 11:09:01;;;;;;;4.60;1.52;;;15.40;99.90;;;;;;4981248;28;20127;-67
2022/05/27 11:11:43;;;;;;;6.53;1.27;;;15.50;99.90;;;;;;4974132;28;20051;-68
2022/05/27 11:17:52;;;;;;;5.28;1.70;;;15.70;99.90;;;;;;4956641;28;20109;-67
2022/05/27 11:21:02;;;;;;;3.80;1.25;;;15.80;99.90;;;;;;4983268;28;21459;-68
2022/05/27 11:23:53;;;;;;;2.67;1.38;;;15.70;99.90;;;;;;4959972;28;20053;-70
2022/05/27 11:27:11;;;;;;;5.25;1.30;;;15.60;99.90;;;;;;5008272;28;20049;-70
2022/05/27 11:29:42;;;;;;;5.55;0.90;;;15.30;99.90;;;;;;4944417;28;20089;-66
2022/05/27 11:32:40;;;;;;;1.75;0.80;;;14.90;99.90;;;;;;4981664;28;20210;-65
2022/05/27 11:35:30;;;;;;;1.38;1.00;;;14.70;99.90;;;;;;4973867;28;20054;-65
2022/05/27 11:38:30;;;;;;;3.83;0.85;;;14.40;99.90;;;;;;4960633;28;20141;-65
2022/05/27 11:41:06;;;;;;;4.22;1.30;;;14.30;99.90;;;;;;4962425;28;20201;-66
2022/05/27 11:43:47;;;;;;;3.75;2.28;;;14.00;99.90;;;;;;4977102;28;20188;-69
2022/05/27 11:46:20;;;;;;;2.20;1.27;;;13.90;99.90;;;;;;4980722;28;22019;-70
2022/05/27 11:48:59;;;;;;;4.00;1.27;;;13.80;99.90;;;;;;4966697;28;20061;-70
2022/05/27 11:51:48;;;;;;;4.78;1.40;;;13.80;99.90;;;;;;4984020;28;20220;-69
2022/05/27 11:54:34;;;;;;;5.28;1.88;;;13.70;99.90;;;;;;4966180;28;21092;-70
2022/05/27 11:57:15;;;;;;;6.53;1.30;;;13.80;99.90;;;;;;4987067;28;20065;-69
2022/05/27 11:59:49;;;;;;;4.25;1.50;;;13.90;99.90;;;;;;4972185;28;20047;-66
2022/05/27 12:02:27;;;;;;;4.18;1.00;;;14.00;99.90;;;;;;4978083;28;20091;-66
2022/05/27 12:05:10;;;;;;;2.72;1.10;;;14.20;99.90;;;;;;4981016;28;20223;-69
2022/05/27 12:07:56;;;;;;;1.98;0.77;;;14.60;99.90;;;;;;4980900;28;20053;-70
2022/05/27 12:10:40;;;;;;;2.50;0.88;;;14.70;99.90;;;;;;4978481;28;20153;-69
2022/05/27 12:13:11;;;;;;;4.13;1.08;;;14.80;99.90;;;;;;4976899;28;20061;-70
2022/05/27 12:15:44;;;;;;;5.07;1.55;;;14.90;99.90;;;;;;4963796;28;20130;-70
2022/05/27 12:18:21;;;;;;;4.10;0.80;;;14.60;99.90;;;;;;4960726;28;20047;-69
2022/05/27 12:20:49;;;;;;;3.85;1.48;;;14.80;99.90;;;;;;4961794;28;20058;-66
2022/05/27 12:23:20;;;;;;;6.15;2.97;;;15.00;99.90;;;;;;4971409;28;20645;-66
2022/05/27 12:25:52;;;;;;;3.97;1.25;;;15.10;99.90;;;;;;4983870;28;20056;-68
2022/05/27 12:28:27;;;;;;;3.45;1.08;;;15.20;99.90;;;;;;4983679;28;20132;-70
2022/05/27 12:30:55;;;;;;;1.75;0.77;;;14.90;99.90;;;;;;4993022;28;20112;-69
2022/05/27 12:33:25;;;;;;;5.63;1.38;;;14.80;99.90;;;;;;4966633;28;20053;-73
2022/05/27 12:35:53;;;;;;;3.35;1.25;;;14.60;99.90;;;;;;4976711;28;20065;-70
2022/05/27 12:38:25;;;;;;;4.28;1.67;;;14.40;99.90;;;;;;4981949;28;20149;-69
2022/05/27 12:40:55;;;;;;;3.38;1.00;;;14.20;99.90;;;;;;4965662;28;20157;-69
2022/05/27 12:43:32;;;;;;;4.43;0.80;;;14.30;99.90;;;;;;4975746;28;20054;-73
2022/05/27 12:46:02;;;;;;;6.72;0.63;;;14.30;99.90;;;;;;4975687;28;20077;-67
2022/05/27 12:48:44;;;;;;;6.22;1.10;;;14.30;99.90;;;;;;4980360;28;20044;-70
2022/05/27 12:51:18;;;;;;;3.80;1.10;;;14.20;99.90;;;;;;4956346;28;20050;-68
2022/05/27 12:53:51;;;;;;;2.45;0.73;;;14.30;99.90;;;;;;4969780;28;20835;-69
2022/05/27 13:02:22;;;;;;;2.85;0.90;;;14.50;99.90;;;;;;4982825;28;20045;-70
2022/05/27 13:04:55;;;;;;;3.45;0.93;;;14.50;99.90;;;;;;4991986;28;20043;-71
2022/05/27 13:07:44;;;;;;;1.42;0.77;;;14.30;99.90;;;;;;4996473;28;20050;-72
2022/05/27 13:10:17;;;;;;;2.20;1.38;;;14.40;99.90;;;;;;4982492;28;20168;-75
2022/05/27 13:13:08;;;;;;;2.10;0.63;;;14.30;99.90;;;;;;4985448;28;20346;-70
2022/05/27 13:15:53;;;;;;;2.17;1.00;;;14.60;99.90;;;;;;4992936;28;20065;-68
2022/05/27 13:18:31;;;;;;;2.85;0.52;;;14.70;99.90;;;;;;4969522;28;20074;-69
2022/05/27 13:21:22;;;;;;;4.35;0.50;;;14.70;99.90;;;;;;4986782;28;20071;-67
2022/05/27 13:23:59;;;;;;;1.85;0.85;;;14.70;99.90;;;;;;4988575;28;20067;-71
2022/05/27 13:26:50;;;;;;;2.25;0.68;;;14.70;99.90;;;;;;4979731;28;20124;-67
2022/05/27 13:29:36;;;;;;;1.83;0.47;;;14.80;99.90;;;;;;4984098;28;20054;-68
2022/05/27 13:32:06;;;;;;;1.52;0.75;;;14.70;99.90;;;;;;4975313;28;20464;-66
2022/05/27 13:34:48;;;;;;;2.20;1.00;;;14.70;99.90;;;;;;4990035;28;20053;-68
2022/05/27 13:37:38;;;;;;;6.68;1.05;;;14.60;99.90;;;;;;4990085;28;20151;-68
2022/05/27 13:40:13;;;;;;;0.60;0.40;;;14.80;99.90;;;;;;4987448;28;20057;-69
2022/05/27 13:42:46;;;;;;;2.40;0.52;;;14.70;99.90;;;;;;4987065;28;20057;-69
2022/05/27 13:45:21;;;;;;;1.60;0.80;;;14.80;99.90;;;;;;5002644;28;20050;-68
2022/05/27 13:48:20;;;;;;;1.15;0.40;;;14.70;99.90;;;;;;4986339;28;20058;-68
2022/05/27 13:50:49;;;;;;;2.38;0.52;;;14.70;99.90;;;;;;4963835;28;20056;-70
2022/05/27 13:53:22;;;;;;;2.05;0.88;;;14.80;99.90;;;;;;4990797;28;20125;-70
2022/05/27 13:56:12;;;;;;;3.28;0.47;;;14.60;99.90;;;;;;4977866;28;20054;-66
2022/05/27 13:59:01;;;;;;;5.22;1.02;;;14.40;99.90;;;;;;4989200;28;20104;-67
2022/05/27 14:01:39;;;;;;;2.10;1.08;;;14.30;99.90;;;;;;4983752;28;20057;-69
2022/05/27 14:04:28;;;;;;;4.20;1.00;;;14.10;99.90;;;;;;4983417;28;20460;-68
2022/05/27 14:06:56;;;;;;;1.75;0.68;;;13.90;99.90;;;;;;4990411;28;20054;-66
2022/05/27 14:09:26;;;;;;;0.77;0.60;;;13.80;99.90;;;;;;4991271;28;20091;-70